| time (UTC) | temp F | wind direction | speed MPH | gust MPH | rain 1hr in | rain 24hr in | rain mn in | humidity % | barometer mb |
| 20260506191513 | 63 | 243 | 2.0 | 6.0 | 0.00 | 0.00 | 0.00 | 18 | 1007.5 |
| 20260506190022 | 62 | 202 | 2.0 | 5.0 | 0.00 | 0.00 | 0.00 | 18 | 1007.6 |
| 20260506184520 | 62 | 229 | 3.0 | 9.0 | 0.00 | 0.00 | 0.00 | 18 | 1007.9 |
| 20260506183031 | 62 | 229 | 3.0 | 7.0 | 0.00 | 0.00 | 0.00 | 18 | 1007.9 |
| 20260506181553 | 62 | 247 | 3.0 | 7.0 | 0.00 | 0.00 | 0.00 | 18 | 1008.0 |
| 20260506180058 | 62 | 207 | 4.0 | 8.0 | 0.00 | 0.00 | 0.00 | 18 | 1008.0 |
| 20260506174501 | 63 | 225 | 3.0 | 5.0 | 0.00 | 0.00 | 0.00 | 18 | 1008.0 |
| 20260506173006 | 63 | 239 | 2.0 | 6.0 | 0.00 | 0.00 | 0.00 | 18 | 1007.9 |
| 20260506171613 | 62 | 227 | 3.0 | 7.0 | 0.00 | 0.00 | 0.00 | 18 | 1008.1 |
| 20260506170107 | 62 | 239 | 4.0 | 8.0 | 0.00 | 0.00 | 0.00 | 18 | 1008.4 |
| 20260506164518 | 62 | 223 | 2.0 | 7.0 | 0.00 | 0.00 | 0.00 | 18 | 1008.3 |
| 20260506163011 | 62 | 253 | 3.0 | 8.0 | 0.00 | 0.00 | 0.00 | 18 | 1008.1 |
| 20260506161506 | 62 | 227 | 3.0 | 7.0 | 0.00 | 0.00 | 0.00 | 18 | 1008.0 |
| 20260506160017 | 63 | 243 | 2.0 | 6.0 | 0.00 | 0.00 | 0.00 | 18 | 1008.6 |
| 20260506154613 | 63 | 236 | 3.0 | 8.0 | 0.00 | 0.00 | 0.00 | 18 | 1009.1 |
| 20260506153009 | 63 | 216 | 4.0 | 8.0 | 0.00 | 0.00 | 0.00 | 18 | 1009.3 |
| 20260506151516 | 63 | 215 | 3.0 | 7.0 | 0.00 | 0.00 | 0.00 | 18 | 1009.5 |
| 20260506150026 | 64 | 218 | 0.0 | 0.0 | 0.00 | 0.00 | 0.00 | 18 | 1009.1 |
| 20260506144504 | 64 | 229 | 0.0 | 1.0 | 0.00 | 0.00 | 0.00 | 18 | 1009.3 |
| 20260506143013 | 64 | 202 | 0.0 | 0.0 | 0.00 | 0.00 | 0.00 | 18 | 1009.2 |
| 20260506141517 | 62 | 238 | 0.0 | 0.0 | 0.00 | 0.00 | 0.00 | 18 | 1009.3 |
| 20260506140127 | 62 | 252 | 0.0 | 0.0 | 0.00 | 0.00 | 0.00 | 18 | 1009.3 |
| 20260506134600 | 63 | 197 | 0.0 | 0.0 | 0.00 | 0.00 | 0.00 | 18 | 1009.1 |
| 20260506133112 | 61 | 209 | 0.0 | 0.0 | 0.00 | 0.00 | 0.00 | 18 | 1009.5 |
| 20260506131515 | 61 | 192 | 0.0 | 0.0 | 0.00 | 0.00 | 0.00 | 18 | 1009.4 |
| 20260506130020 | 60 | 209 | 0.0 | 0.0 | 0.00 | 0.00 | 0.00 | 18 | 1009.5 |
| 20260506124519 | 61 | 217 | 0.0 | 0.0 | 0.00 | 0.00 | 0.00 | 18 | 1009.6 |
| 20260506123026 | 61 | 279 | 0.0 | 0.0 | 0.00 | 0.00 | 0.00 | 18 | 1009.5 |
| 20260506121609 | 61 | 281 | 0.0 | 4.0 | 0.00 | 0.00 | 0.00 | 18 | 1009.1 |
| 20260506120013 | 61 | 259 | 0.0 | 4.0 | 0.00 | 0.00 | 0.00 | 18 | 1009.1 |
| 20260506114614 | 61 | 227 | 0.0 | 2.0 | 0.00 | 0.00 | 0.00 | 18 | 1009.1 |
| 20260506113003 | 61 | 221 | 0.0 | 4.0 | 0.00 | 0.00 | 0.00 | 18 | 1008.9 |
| 20260506111522 | 61 | 221 | 0.0 | 4.0 | 0.00 | 0.00 | 0.00 | 18 | 1009.0 |
| 20260506110055 | 61 | 223 | 0.0 | 1.0 | 0.00 | 0.00 | 0.00 | 18 | 1008.9 |
| 20260506104514 | 61 | 234 | 0.0 | 0.0 | 0.00 | 0.00 | 0.00 | 18 | 1008.9 |
| 20260506103032 | 61 | 209 | 0.0 | 2.0 | 0.00 | 0.00 | 0.00 | 18 | 1008.6 |
| 20260506101538 | 61 | 252 | 0.0 | 4.0 | 0.00 | 0.00 | 0.00 | 18 | 1008.7 |
| 20260506094559 | 61 | 218 | 2.0 | 6.0 | 0.00 | 0.00 | 0.00 | 18 | 1008.8 |
| 20260506093059 | 62 | 238 | 3.0 | 6.0 | 0.00 | 0.00 | 0.00 | 18 | 1008.6 |
| 20260506091600 | 62 | 221 | 3.0 | 5.0 | 0.00 | 0.00 | 0.00 | 18 | 1008.5 |
| 20260506090051 | 63 | 242 | 3.0 | 6.0 | 0.00 | 0.00 | 0.00 | 23 | 1008.5 |
| 20260506084553 | 64 | 217 | 2.0 | 6.0 | 0.00 | 0.00 | 0.00 | 29 | 1008.7 |
| 20260506083050 | 64 | 248 | 3.0 | 6.0 | 0.00 | 0.00 | 0.00 | 33 | 1008.8 |
| 20260506081545 | 64 | 211 | 3.0 | 6.0 | 0.00 | 0.00 | 0.00 | 38 | 1008.9 |
| 20260506073043 | 64 | 205 | 0.0 | 5.0 | 0.00 | 0.00 | 0.00 | 51 | 1008.9 |
| 20260506071539 | 64 | 217 | 1.0 | 5.0 | 0.00 | 0.00 | 0.00 | 54 | 1009.1 |
| 20260506061532 | 65 | 218 | 2.0 | 5.0 | 0.00 | 0.00 | 0.00 | 61 | 1009.6 |
| 20260506044522 | 66 | 218 | 1.0 | 5.0 | 0.00 | 0.00 | 0.00 | 68 | 1010.3 |
| 20260506043024 | 66 | 218 | 1.0 | 3.0 | 0.00 | 0.00 | 0.00 | 70 | 1010.2 |
| 20260506041519 | 66 | 218 | 2.0 | 5.0 | 0.00 | 0.00 | 0.00 | 71 | 1010.2 |
| 20260506040033 | 67 | 218 | 2.0 | 5.0 | 0.00 | 0.00 | 0.00 | 71 | 1010.1 |
| 20260506034517 | 67 | 218 | 3.0 | 5.0 | 0.00 | 0.00 | 0.00 | 71 | 1010.1 |
| 20260506033017 | 68 | 217 | 3.0 | 5.0 | 0.00 | 0.00 | 0.00 | 71 | 1009.9 |
| 20260506031516 | 68 | 215 | 3.0 | 5.0 | 0.00 | 0.00 | 0.00 | 70 | 1009.9 |
| 20260506030016 | 69 | 215 | 3.0 | 5.0 | 0.00 | 0.00 | 0.00 | 70 | 1009.9 |
| 20260506024516 | 69 | 215 | 2.0 | 5.0 | 0.00 | 0.00 | 0.00 | 69 | 1009.9 |
| 20260506023025 | 70 | 215 | 2.0 | 5.0 | 0.00 | 0.00 | 0.00 | 68 | 1010.1 |
| 20260506021502 | 70 | 215 | 3.0 | 5.0 | 0.00 | 0.00 | 0.00 | 67 | 1010.1 |
| 20260506020115 | 71 | 214 | 3.0 | 5.0 | 0.00 | 0.00 | 0.00 | 66 | 1010.0 |
| 20260506014521 | 72 | 214 | 2.0 | 5.0 | 0.00 | 0.00 | 0.00 | 64 | 1009.9 |
| 20260506013057 | 72 | 198 | 4.0 | 6.0 | 0.00 | 0.00 | 0.00 | 64 | 1009.8 |
| 20260506011510 | 73 | 217 | 1.0 | 5.0 | 0.00 | 0.00 | 0.00 | 62 | 1009.6 |
| 20260506010117 | 73 | 211 | 2.0 | 9.0 | 0.00 | 0.00 | 0.00 | 61 | 1009.3 |
| 20260506004516 | 73 | 225 | 3.0 | 7.0 | 0.00 | 0.00 | 0.00 | 61 | 1009.3 |
| 20260506003004 | 73 | 230 | 2.0 | 5.0 | 0.00 | 0.00 | 0.00 | 62 | 1009.1 |
| 20260506001612 | 74 | 229 | 2.0 | 5.0 | 0.00 | 0.00 | 0.00 | 61 | 1009.0 |
| 20260506000020 | 74 | 235 | 2.0 | 6.0 | 0.00 | 0.00 | 0.00 | 59 | 1009.0 |
| 20260505234508 | 75 | 250 | 2.0 | 6.0 | 0.00 | 0.00 | 0.00 | 59 | 1008.8 |
| 20260505233009 | 75 | 228 | 3.0 | 7.0 | 0.00 | 0.00 | 0.00 | 58 | 1008.7 |
| 20260505231531 | 76 | 219 | 2.0 | 6.0 | 0.00 | 0.00 | 0.00 | 58 | 1008.7 |
| 20260505230028 | 76 | 217 | 0.0 | 1.0 | 0.00 | 0.00 | 0.00 | 57 | 1008.7 |
| 20260505224523 | 77 | 267 | 0.0 | 7.0 | 0.00 | 0.00 | 0.00 | 54 | 1008.4 |
| 20260505223112 | 78 | 250 | 6.0 | 13.0 | 0.00 | 0.00 | 0.00 | 54 | 1008.4 |
| 20260505221602 | 78 | 257 | 4.0 | 11.0 | 0.00 | 0.00 | 0.00 | 54 | 1008.4 |
| 20260505220013 | 78 | 219 | 4.0 | 9.0 | 0.00 | 0.00 | 0.00 | 55 | 1008.3 |
| 20260505214623 | 78 | 230 | 3.0 | 9.0 | 0.00 | 0.00 | 0.00 | 55 | 1008.5 |
| 20260505213113 | 78 | 227 | 3.0 | 8.0 | 0.00 | 0.00 | 0.00 | 56 | 1008.4 |
| 20260505211612 | 78 | 227 | 4.0 | 9.0 | 0.00 | 0.00 | 0.00 | 55 | 1008.3 |
| 20260505210010 | 79 | 200 | 3.0 | 12.0 | 0.00 | 0.00 | 0.00 | 54 | 1008.3 |
| 20260505204528 | 79 | 221 | 5.0 | 10.0 | 0.00 | 0.00 | 0.00 | 54 | 1008.2 |
| 20260505203013 | 79 | 189 | 2.0 | 8.0 | 0.00 | 0.00 | 0.00 | 54 | 1008.3 |
| 20260505201523 | 79 | 202 | 5.0 | 11.0 | 0.00 | 0.00 | 0.00 | 53 | 1008.4 |
| 20260505200010 | 79 | 199 | 4.0 | 8.0 | 0.00 | 0.00 | 0.00 | 53 | 1008.4 |
| 20260505194606 | 79 | 267 | 4.0 | 11.0 | 0.00 | 0.00 | 0.00 | 54 | 1008.5 |
| 20260505193012 | 79 | 280 | 5.0 | 12.0 | 0.00 | 0.00 | 0.00 | 53 | 1008.6 |